Time;durP1;ratioP1;P1;durP2;ratioP2;P2;SDS_P1;SDS_P2;PMS_P1;PMS_P2;Temp;Humidity;BMP_temperature;BMP_pressure;BME280_temperature;BME280_humidity;BME280_pressure;Samples;Min_cycle;Max_cycle;Signal;HPM_P1;HPM_P2
2023/01/29 00:01:28;;;;;;;17.63;10.63;;;3.80;99.90;;;;;;5072355;28;20127;-78
2023/01/29 00:03:53;;;;;;;15.67;10.60;;;3.60;99.90;;;;;;5071461;28;20105;-78
2023/01/29 00:06:19;;;;;;;15.13;10.57;;;3.70;99.90;;;;;;5071738;28;20048;-78
2023/01/29 00:08:45;;;;;;;14.87;10.77;;;3.70;99.90;;;;;;5072072;28;20052;-78
2023/01/29 00:11:11;;;;;;;17.70;11.03;;;3.70;99.90;;;;;;5071036;28;20568;-78
2023/01/29 00:13:37;;;;;;;18.87;11.17;;;3.70;99.90;;;;;;5072469;28;20298;-78
2023/01/29 00:16:03;;;;;;;15.93;10.87;;;3.70;99.90;;;;;;5071311;28;20555;-78
2023/01/29 00:18:30;;;;;;;19.03;12.50;;;3.70;99.90;;;;;;5071503;28;20479;-78
2023/01/29 00:20:56;;;;;;;17.60;11.50;;;3.70;99.90;;;;;;5070299;28;20060;-78
2023/01/29 00:23:22;;;;;;;17.43;11.80;;;3.70;99.90;;;;;;5069387;28;20155;-78
2023/01/29 00:25:48;;;;;;;17.37;11.73;;;3.80;99.90;;;;;;5063695;28;20546;-78
2023/01/29 00:28:14;;;;;;;18.23;11.63;;;3.70;99.90;;;;;;5071682;28;20082;-78
2023/01/29 00:30:40;;;;;;;17.17;12.27;;;3.70;99.90;;;;;;5072237;28;20056;-78
2023/01/29 00:33:06;;;;;;;20.23;13.00;;;3.70;99.90;;;;;;5070801;28;20049;-78
2023/01/29 00:35:32;;;;;;;21.43;12.10;;;3.70;99.90;;;;;;5071207;28;20574;-78
2023/01/29 00:37:58;;;;;;;20.87;12.87;;;3.70;99.90;;;;;;5071354;28;20048;-78
2023/01/29 00:40:25;;;;;;;17.77;12.37;;;3.70;99.90;;;;;;5071043;28;20048;-78
2023/01/29 00:45:35;;;;;;;21.20;13.57;;;3.70;99.90;;;;;;5072192;28;20055;-78
2023/01/29 00:48:02;;;;;;;20.13;13.00;;;3.70;99.90;;;;;;5071494;28;20426;-78
2023/01/29 00:50:28;;;;;;;21.77;14.27;;;3.60;99.90;;;;;;5071999;28;20049;-78
2023/01/29 00:52:54;;;;;;;20.60;13.10;;;3.60;99.90;;;;;;5069886;28;20557;-78
2023/01/29 00:55:20;;;;;;;21.67;13.90;;;3.60;99.90;;;;;;5070662;28;20486;-78
2023/01/29 00:57:46;;;;;;;20.10;14.37;;;3.60;99.90;;;;;;5052258;28;20045;-78
2023/01/29 01:00:15;;;;;;;17.97;13.40;;;3.50;99.90;;;;;;5072045;28;20044;-78
2023/01/29 01:05:25;;;;;;;19.50;14.23;;;3.50;99.90;;;;;;5071866;28;20071;-78
2023/01/29 01:07:53;;;;;;;20.93;15.07;;;3.60;99.90;;;;;;5070386;28;20036;-78
2023/01/29 01:10:23;;;;;;;23.17;13.43;;;3.50;99.90;;;;;;5071406;28;20036;-79
2023/01/29 01:12:57;;;;;;;21.13;14.80;;;3.50;99.90;;;;;;5070381;28;20036;-78
2023/01/29 01:15:25;;;;;;;22.70;15.20;;;3.50;99.90;;;;;;5069988;28;20048;-78
2023/01/29 01:17:53;;;;;;;24.80;15.00;;;3.50;99.90;;;;;;5069748;28;20059;-78
2023/01/29 01:20:18;;;;;;;25.27;16.43;;;3.60;99.90;;;;;;5070184;28;20809;-78
2023/01/29 01:22:44;;;;;;;24.33;16.57;;;3.60;99.90;;;;;;5070345;28;20049;-78
2023/01/29 01:25:10;;;;;;;26.30;15.17;;;3.60;99.90;;;;;;5060789;28;20423;-78
2023/01/29 01:27:39;;;;;;;22.33;14.73;;;3.60;99.90;;;;;;5070387;28;20394;-78
2023/01/29 01:30:08;;;;;;;21.07;15.67;;;3.70;99.90;;;;;;5070397;28;20135;-78
2023/01/29 01:32:33;;;;;;;24.93;16.20;;;3.70;99.90;;;;;;5069590;28;20048;-79
2023/01/29 01:34:59;;;;;;;21.23;15.60;;;3.80;99.90;;;;;;5071243;28;20040;-78
2023/01/29 01:37:25;;;;;;;22.43;15.70;;;3.80;99.90;;;;;;5070639;28;20043;-78
2023/01/29 01:39:50;;;;;;;22.43;15.43;;;3.80;99.90;;;;;;5071423;28;20502;-78
2023/01/29 01:42:16;;;;;;;23.77;14.80;;;3.80;99.90;;;;;;5070152;28;20048;-78
2023/01/29 01:45:00;;;;;;;23.33;15.63;;;3.80;99.90;;;;;;5070383;28;20052;-78
2023/01/29 01:47:42;;;;;;;20.10;14.90;;;3.80;99.90;;;;;;5070074;28;20394;-78
2023/01/29 01:50:26;;;;;;;24.03;15.43;;;3.80;99.90;;;;;;5069562;28;20098;-78
2023/01/29 01:52:57;;;;;;;20.93;14.60;;;3.90;99.90;;;;;;5069989;28;20541;-79
2023/01/29 01:55:27;;;;;;;22.27;15.15;;;4.00;99.90;;;;;;5070617;28;20127;-78
2023/01/29 01:58:09;;;;;;;25.40;15.23;;;3.90;99.90;;;;;;5069894;28;20044;-79
2023/01/29 02:00:35;;;;;;;24.53;15.90;;;3.90;99.90;;;;;;5070034;28;20052;-78
2023/01/29 02:11:41;;;;;;;29.40;18.10;;;3.80;99.90;;;;;;5070172;28;20059;-78
2023/01/29 02:14:08;;;;;;;25.57;16.63;;;3.90;99.90;;;;;;5069740;28;20048;-78
2023/01/29 02:16:35;;;;;;;29.83;18.97;;;3.80;99.90;;;;;;5069427;28;20123;-78
2023/01/29 02:19:02;;;;;;;32.13;18.50;;;3.80;99.90;;;;;;5068782;28;20060;-78
2023/01/29 02:21:51;;;;;;;28.30;18.87;;;4.00;99.90;;;;;;5069332;28;20098;-78
2023/01/29 02:24:38;;;;;;;30.53;19.27;;;3.80;99.90;;;;;;5058587;28;20445;-78
2023/01/29 02:27:16;;;;;;;35.33;20.83;;;3.80;99.90;;;;;;5067960;28;20052;-77
2023/01/29 02:29:59;;;;;;;29.20;20.20;;;4.00;99.90;;;;;;5070178;28;20395;-78
2023/01/29 02:32:34;;;;;;;34.33;20.87;;;3.80;99.90;;;;;;5069445;28;20398;-77
2023/01/29 02:35:28;;;;;;;33.37;21.73;;;3.80;99.90;;;;;;5069723;28;20045;-78
2023/01/29 02:38:23;;;;;;;32.20;20.70;;;3.80;99.90;;;;;;5051816;28;20129;-78
2023/01/29 02:40:51;;;;;;;31.30;20.57;;;3.80;99.90;;;;;;5058151;28;20097;-77
2023/01/29 02:43:34;;;;;;;35.50;22.73;;;3.80;99.90;;;;;;5051514;28;20048;-78
2023/01/29 02:46:00;;;;;;;34.13;22.43;;;3.80;99.90;;;;;;5070119;28;20048;-78
2023/01/29 02:48:36;;;;;;;40.27;24.07;;;4.10;99.90;;;;;;5069322;28;20145;-77
2023/01/29 02:51:07;;;;;;;37.63;23.63;;;3.80;99.90;;;;;;5051989;28;20071;-79
2023/01/29 02:53:37;;;;;;;;;;;3.80;99.90;;;;;;5070109;28;20117;-78
2023/01/29 02:56:14;;;;;;;45.90;25.27;;;3.80;99.90;;;;;;5069351;28;19924;-78
2023/01/29 02:58:46;;;;;;;41.30;26.17;;;3.70;99.90;;;;;;5067470;28;20087;-78
2023/01/29 03:01:22;;;;;;;42.23;26.77;;;3.90;99.90;;;;;;5069041;28;20398;-78
2023/01/29 03:03:55;;;;;;;41.00;25.00;;;3.70;99.90;;;;;;5069331;28;20097;-78
2023/01/29 03:06:31;;;;;;;43.27;26.40;;;3.70;99.90;;;;;;5069478;28;20541;-80
2023/01/29 03:09:06;;;;;;;40.67;26.80;;;3.70;99.90;;;;;;5068845;28;20048;-78
2023/01/29 03:11:39;;;;;;;44.93;27.87;;;3.70;99.90;;;;;;5067743;28;20048;-79
2023/01/29 03:14:12;;;;;;;52.77;31.67;;;3.70;99.90;;;;;;5068817;28;20063;-78
2023/01/29 03:16:44;;;;;;;50.37;30.20;;;3.70;99.90;;;;;;5069126;28;20487;-78
2023/01/29 03:19:16;;;;;;;51.60;33.63;;;3.60;99.90;;;;;;5072960;28;20063;-79
2023/01/29 03:22:00;;;;;;;54.43;32.97;;;3.60;99.90;;;;;;5074988;28;20356;-79
2023/01/29 03:33:23;;;;;;;75.07;41.13;;;3.70;99.90;;;;;;5054713;28;20052;-78
2023/01/29 03:35:59;;;;;;;78.27;42.70;;;3.60;99.90;;;;;;5063505;28;20103;-78
2023/01/29 03:38:28;;;;;;;73.23;42.87;;;3.60;99.90;;;;;;5075044;28;20053;-78
2023/01/29 03:41:27;;;;;;;79.00;44.63;;;3.70;99.90;;;;;;5075810;28;20102;-78
2023/01/29 03:44:18;;;;;;;77.27;42.90;;;3.70;99.90;;;;;;5075753;28;20052;-78
2023/01/29 03:47:12;;;;;;;57.53;33.83;;;3.70;99.90;;;;;;5074503;28;20045;-78
2023/01/29 03:49:57;;;;;;;75.50;43.13;;;3.70;99.90;;;;;;5075015;28;20052;-80
2023/01/29 03:52:41;;;;;;;73.17;44.63;;;3.70;99.90;;;;;;5075150;28;20136;-78
2023/01/29 03:55:19;;;;;;;72.93;41.97;;;3.70;99.90;;;;;;5075746;28;20514;-78
2023/01/29 03:57:52;;;;;;;73.90;42.80;;;3.70;99.90;;;;;;5075220;28;20106;-78
2023/01/29 04:00:41;;;;;;;70.07;42.27;;;3.80;99.90;;;;;;5076427;28;20536;-78
2023/01/29 04:03:27;;;;;;;65.00;40.70;;;3.80;99.90;;;;;;5074688;28;20482;-78
2023/01/29 04:06:11;;;;;;;58.97;40.30;;;3.80;99.90;;;;;;5075628;28;20549;-79
2023/01/29 04:08:48;;;;;;;57.90;37.13;;;3.80;99.90;;;;;;5074275;28;20079;-78
2023/01/29 04:11:17;;;;;;;57.43;35.83;;;3.90;99.90;;;;;;5075277;28;20044;-78
2023/01/29 04:13:45;;;;;;;53.60;36.43;;;3.90;99.90;;;;;;5075457;28;20041;-78
2023/01/29 04:16:16;;;;;;;51.77;35.53;;;3.90;99.90;;;;;;5074621;28;20131;-79
2023/01/29 04:18:49;;;;;;;47.20;32.17;;;3.90;99.90;;;;;;5075225;28;20044;-78
2023/01/29 04:21:15;;;;;;;49.93;33.53;;;4.00;99.90;;;;;;5075058;28;20052;-78
2023/01/29 04:23:41;;;;;;;49.47;33.67;;;3.90;99.90;;;;;;5070607;28;20712;-78
2023/01/29 04:26:31;;;;;;;52.80;31.33;;;4.00;99.90;;;;;;5069575;28;20233;-78
2023/01/29 04:29:20;;;;;;;44.87;31.03;;;3.90;99.90;;;;;;5074475;28;20417;-78
2023/01/29 04:32:01;;;;;;;48.17;31.37;;;3.90;99.90;;;;;;5071496;28;20486;-79
2023/01/29 04:35:11;;;;;;;47.97;32.20;;;4.00;99.90;;;;;;5070921;28;20113;-78
2023/01/29 04:38:00;;;;;;;51.50;31.80;;;3.90;99.90;;;;;;5017497;28;20469;-79
2023/01/29 04:40:46;;;;;;;49.47;31.47;;;3.90;99.90;;;;;;5052536;28;20053;-78
2023/01/29 04:43:25;;;;;;;48.37;30.73;;;3.90;99.90;;;;;;5051488;28;20138;-78
2023/01/29 04:46:12;;;;;;;46.70;31.83;;;3.90;99.90;;;;;;5050997;28;20048;-78
2023/01/29 04:49:15;;;;;;;46.27;30.57;;;3.90;99.90;;;;;;5051811;28;20512;-79
2023/01/29 04:52:05;;;;;;;50.53;31.97;;;3.90;99.90;;;;;;5052018;28;20139;-78
2023/01/29 04:54:57;;;;;;;45.80;29.13;;;3.90;99.90;;;;;;5056886;28;20501;-78
2023/01/29 04:57:45;;;;;;;43.97;29.73;;;3.90;99.90;;;;;;5069478;28;20047;-78
2023/01/29 05:00:26;;;;;;;44.83;29.23;;;4.00;99.90;;;;;;5072173;28;20086;-78
2023/01/29 05:02:52;;;;;;;35.35;23.45;;;4.00;99.90;;;;;;5070584;28;20044;-78
2023/01/29 05:05:19;;;;;;;43.13;28.63;;;4.00;99.90;;;;;;5071111;28;20123;-78
2023/01/29 05:07:46;;;;;;;41.43;28.77;;;4.00;99.90;;;;;;5067279;28;20045;-79
2023/01/29 05:10:14;;;;;;;42.13;29.47;;;4.00;99.90;;;;;;5070413;28;20583;-78
2023/01/29 05:12:42;;;;;;;42.17;29.93;;;4.00;99.90;;;;;;5069918;28;20151;-78
2023/01/29 05:15:13;;;;;;;43.57;29.30;;;3.90;99.90;;;;;;5070661;28;20044;-78
2023/01/29 05:17:39;;;;;;;43.30;27.40;;;4.00;99.90;;;;;;5070576;28;20079;-80
2023/01/29 05:20:06;;;;;;;39.83;28.67;;;4.00;99.90;;;;;;5070445;28;20048;-78
2023/01/29 05:22:32;;;;;;;41.93;27.47;;;3.90;99.90;;;;;;5070712;28;20135;-78
2023/01/29 05:24:57;;;;;;;40.43;28.03;;;4.00;99.90;;;;;;5066737;28;20053;-78
2023/01/29 05:30:18;;;;;;;41.77;27.60;;;4.00;99.90;;;;;;5068028;28;20091;-78
2023/01/29 05:32:43;;;;;;;41.50;28.20;;;4.00;99.90;;;;;;5065866;28;20068;-79
2023/01/29 05:35:09;;;;;;;41.57;28.77;;;4.00;99.90;;;;;;5068152;28;20045;-78
2023/01/29 05:37:35;;;;;;;40.53;29.07;;;4.00;99.90;;;;;;5074145;28;20479;-78
2023/01/29 05:40:00;;;;;;;39.63;28.30;;;4.10;99.90;;;;;;5071024;28;20040;-78
2023/01/29 05:42:26;;;;;;;38.67;27.50;;;4.00;99.90;;;;;;5067612;28;20143;-78
2023/01/29 05:44:52;;;;;;;41.33;27.80;;;3.90;99.90;;;;;;5070086;28;20055;-78
2023/01/29 05:47:21;;;;;;;42.13;26.90;;;3.90;99.90;;;;;;5070282;28;20407;-79
2023/01/29 05:49:46;;;;;;;41.10;27.23;;;3.90;99.90;;;;;;5068131;28;20079;-78
2023/01/29 05:52:12;;;;;;;39.17;28.00;;;3.90;99.90;;;;;;5067323;28;20076;-78
2023/01/29 05:54:38;;;;;;;43.77;28.83;;;4.00;99.90;;;;;;5067918;28;20075;-78
2023/01/29 05:57:03;;;;;;;38.17;26.70;;;3.90;99.90;;;;;;5066668;28;20797;-78
2023/01/29 05:59:30;;;;;;;37.33;28.53;;;3.90;99.90;;;;;;5069533;28;20638;-78
2023/01/29 06:01:56;;;;;;;36.73;26.47;;;3.90;99.90;;;;;;5069582;28;20049;-78
2023/01/29 06:04:22;;;;;;;38.37;28.00;;;3.90;99.90;;;;;;5068796;28;20083;-78
2023/01/29 06:06:48;;;;;;;39.43;27.07;;;3.90;99.90;;;;;;5070274;28;20076;-78
2023/01/29 06:09:13;;;;;;;41.33;27.73;;;3.90;99.90;;;;;;5070455;28;20578;-78
2023/01/29 06:11:39;;;;;;;40.30;27.37;;;3.90;99.90;;;;;;5070020;28;20055;-78
2023/01/29 06:14:05;;;;;;;39.97;28.57;;;4.00;99.90;;;;;;5070282;28;20067;-78
2023/01/29 06:16:30;;;;;;;42.97;28.50;;;4.00;99.90;;;;;;5070095;28;20040;-78
2023/01/29 06:18:56;;;;;;;41.00;27.70;;;4.00;99.90;;;;;;5069622;28;20513;-78
2023/01/29 06:21:22;;;;;;;42.73;28.83;;;4.00;99.90;;;;;;5069331;28;20095;-78
2023/01/29 06:23:47;;;;;;;42.30;28.23;;;4.10;99.90;;;;;;5064798;28;20076;-78
2023/01/29 06:26:14;;;;;;;41.13;27.77;;;4.10;99.90;;;;;;5063728;28;20040;-78
2023/01/29 06:28:41;;;;;;;42.20;29.10;;;4.20;99.90;;;;;;5065520;28;20048;-78
2023/01/29 06:31:07;;;;;;;43.70;31.03;;;4.20;99.90;;;;;;5050408;28;20384;-78
2023/01/29 06:33:33;;;;;;;42.17;30.27;;;4.10;99.90;;;;;;5064186;28;20040;-77
2023/01/29 06:36:01;;;;;;;41.00;28.33;;;4.20;99.90;;;;;;5069290;28;20463;-78
2023/01/29 06:38:27;;;;;;;39.73;27.90;;;4.00;99.90;;;;;;5066975;28;20044;-78
2023/01/29 06:40:54;;;;;;;41.57;28.60;;;4.00;99.90;;;;;;5069191;28;20048;-78
2023/01/29 06:43:20;;;;;;;41.90;28.23;;;4.10;99.90;;;;;;5069001;28;20401;-78
2023/01/29 06:45:53;;;;;;;42.07;29.33;;;4.00;99.90;;;;;;5068145;28;20051;-78
2023/01/29 06:48:20;;;;;;;44.17;29.50;;;4.00;99.90;;;;;;5068530;28;20048;-78
2023/01/29 06:50:48;;;;;;;52.60;31.53;;;4.00;99.90;;;;;;5070656;28;20045;-79
2023/01/29 06:53:14;;;;;;;46.73;31.83;;;4.00;99.90;;;;;;5069138;28;20040;-78
2023/01/29 06:55:40;;;;;;;53.43;35.60;;;4.00;99.90;;;;;;5070527;28;20044;-78
2023/01/29 06:58:11;;;;;;;52.40;34.00;;;4.00;99.90;;;;;;5068971;28;20048;-78
2023/01/29 07:00:37;;;;;;;52.83;34.70;;;4.00;99.90;;;;;;5070478;28;20111;-78
2023/01/29 07:03:03;;;;;;;59.03;37.10;;;4.00;99.90;;;;;;5069133;28;20052;-78
2023/01/29 07:05:30;;;;;;;65.23;40.57;;;4.00;99.90;;;;;;5070582;28;20045;-78
2023/01/29 07:07:56;;;;;;;62.20;40.37;;;4.10;99.90;;;;;;5068729;28;20047;-79
2023/01/29 07:10:22;;;;;;;57.53;38.73;;;3.90;99.90;;;;;;5067542;28;20410;-78
2023/01/29 07:12:48;;;;;;;60.57;43.30;;;3.90;99.90;;;;;;5066530;28;20044;-78
2023/01/29 07:15:13;;;;;;;68.13;43.27;;;3.90;99.90;;;;;;5069246;28;20055;-78
2023/01/29 07:17:39;;;;;;;62.53;40.47;;;3.90;99.90;;;;;;5068693;28;20033;-78
2023/01/29 07:20:05;;;;;;;65.17;42.33;;;3.80;99.90;;;;;;5068101;28;20047;-78
2023/01/29 07:22:31;;;;;;;64.87;43.27;;;3.80;99.90;;;;;;5068730;28;20045;-77
2023/01/29 07:24:57;;;;;;;68.23;47.13;;;3.80;99.90;;;;;;5058944;28;20040;-77
2023/01/29 07:27:23;;;;;;;69.40;53.57;;;3.80;99.90;;;;;;5068701;28;20067;-77
2023/01/29 07:29:49;;;;;;;68.03;44.93;;;3.90;99.90;;;;;;5069819;28;20552;-77
2023/01/29 07:32:14;;;;;;;65.33;44.17;;;3.80;99.90;;;;;;5067897;28;20063;-77
2023/01/29 07:34:40;;;;;;;71.13;43.90;;;3.80;99.90;;;;;;5069271;28;20056;-77
2023/01/29 07:37:06;;;;;;;68.80;45.17;;;3.80;99.90;;;;;;5069208;28;20111;-78
2023/01/29 07:39:31;;;;;;;74.17;47.03;;;3.80;99.90;;;;;;5069038;28;20080;-77
2023/01/29 07:41:57;;;;;;;72.90;49.77;;;3.70;99.90;;;;;;5067542;28;20047;-78
2023/01/29 07:44:23;;;;;;;72.30;46.37;;;3.70;99.90;;;;;;5065357;28;20507;-78
2023/01/29 07:46:48;;;;;;;71.43;50.20;;;3.70;99.90;;;;;;5067354;28;20032;-78
2023/01/29 07:49:15;;;;;;;69.73;46.70;;;3.70;99.90;;;;;;5064667;28;20048;-77
2023/01/29 07:51:41;;;;;;;68.37;47.00;;;3.70;99.90;;;;;;5067627;28;20045;-77
2023/01/29 07:54:06;;;;;;;64.23;43.93;;;3.70;99.90;;;;;;5065055;28;20055;-78
2023/01/29 07:56:32;;;;;;;67.03;45.97;;;3.70;99.90;;;;;;5065834;28;20112;-77
2023/01/29 07:58:58;;;;;;;75.13;49.60;;;3.70;99.90;;;;;;5067332;28;20052;-77
2023/01/29 08:01:24;;;;;;;79.57;50.33;;;3.80;99.90;;;;;;5067238;28;20075;-77
2023/01/29 08:03:49;;;;;;;81.97;54.53;;;3.70;99.90;;;;;;5046277;28;20059;-77
2023/01/29 08:06:15;;;;;;;87.80;58.83;;;3.70;99.90;;;;;;5052268;28;20045;-77
2023/01/29 08:08:41;;;;;;;86.00;55.83;;;3.60;99.90;;;;;;5070783;28;20044;-77
2023/01/29 08:11:06;;;;;;;84.10;55.77;;;3.60;99.90;;;;;;5070964;28;20049;-77
2023/01/29 08:13:32;;;;;;;84.97;52.90;;;3.60;99.90;;;;;;5069638;28;20040;-78
2023/01/29 08:16:00;;;;;;;95.23;60.47;;;3.50;99.90;;;;;;5070722;28;20094;-78
2023/01/29 08:18:26;;;;;;;94.00;57.90;;;3.50;99.90;;;;;;5069940;28;20045;-78
2023/01/29 08:20:51;;;;;;;103.77;64.93;;;3.50;99.90;;;;;;5069919;28;20110;-77
2023/01/29 08:23:17;;;;;;;100.30;57.20;;;3.50;99.90;;;;;;5070402;28;20051;-78
2023/01/29 08:25:43;;;;;;;106.87;64.33;;;3.50;99.90;;;;;;5070814;28;20048;-77
2023/01/29 08:28:10;;;;;;;107.87;66.00;;;3.50;99.90;;;;;;5068931;28;20063;-78
2023/01/29 08:30:37;;;;;;;106.03;60.50;;;3.50;99.90;;;;;;5070863;28;20127;-78
2023/01/29 08:33:03;;;;;;;107.53;62.77;;;3.50;99.90;;;;;;5068770;28;20076;-78
2023/01/29 08:35:29;;;;;;;116.00;65.13;;;3.60;99.90;;;;;;5069754;28;20040;-78
2023/01/29 08:37:58;;;;;;;116.43;70.97;;;3.50;99.90;;;;;;5070400;28;20118;-77
2023/01/29 08:40:24;;;;;;;114.67;66.97;;;3.60;99.90;;;;;;5069541;28;20047;-78
2023/01/29 08:42:50;;;;;;;114.80;65.23;;;3.60;99.90;;;;;;5069317;28;20063;-77
2023/01/29 08:45:16;;;;;;;111.90;71.27;;;3.60;99.90;;;;;;5070846;28;20547;-77
2023/01/29 08:47:48;;;;;;;111.93;66.63;;;3.60;99.90;;;;;;5069602;28;20457;-78
2023/01/29 08:50:15;;;;;;;107.00;66.50;;;3.60;99.90;;;;;;5070308;28;20435;-78
2023/01/29 08:52:42;;;;;;;115.37;73.87;;;3.60;99.90;;;;;;5068691;28;20135;-78
2023/01/29 08:55:08;;;;;;;120.70;75.17;;;3.60;99.90;;;;;;5069843;28;20592;-78
2023/01/29 08:57:33;;;;;;;112.43;68.07;;;3.60;99.90;;;;;;5068130;28;20040;-77
2023/01/29 08:59:59;;;;;;;118.83;76.27;;;3.70;99.90;;;;;;5070491;28;20067;-77
2023/01/29 09:02:25;;;;;;;107.87;63.93;;;3.70;99.90;;;;;;5069890;28;20545;-78
2023/01/29 09:04:50;;;;;;;118.60;68.23;;;3.70;99.90;;;;;;5070739;28;20040;-77
2023/01/29 09:07:16;;;;;;;119.10;74.97;;;3.70;99.90;;;;;;5069089;28;20098;-78
2023/01/29 09:09:42;;;;;;;113.27;69.50;;;3.70;99.90;;;;;;5070066;28;20120;-78
2023/01/29 09:12:07;;;;;;;112.70;63.47;;;3.70;99.90;;;;;;5069280;28;20044;-79
2023/01/29 09:14:33;;;;;;;115.40;68.00;;;3.80;99.90;;;;;;5070593;28;20083;-78
2023/01/29 09:16:58;;;;;;;108.50;64.80;;;3.80;99.90;;;;;;5069379;28;20041;-78
2023/01/29 09:19:24;;;;;;;107.27;65.27;;;3.80;99.90;;;;;;5067877;28;20044;-78
2023/01/29 09:21:50;;;;;;;102.17;64.90;;;3.90;99.90;;;;;;5068471;28;20047;-78
2023/01/29 09:24:15;;;;;;;111.17;75.60;;;3.90;99.90;;;;;;5069255;28;20128;-77
2023/01/29 09:26:41;;;;;;;97.87;62.37;;;4.00;99.90;;;;;;5069511;28;20079;-78
2023/01/29 09:29:09;;;;;;;91.77;57.03;;;4.00;99.90;;;;;;5065642;28;20056;-78
2023/01/29 09:31:35;;;;;;;104.80;65.33;;;4.00;99.90;;;;;;5068770;28;20314;-78
2023/01/29 09:34:00;;;;;;;88.63;55.10;;;4.00;99.90;;;;;;5068205;28;20044;-78
2023/01/29 09:36:26;;;;;;;96.03;58.10;;;4.10;99.90;;;;;;5067456;28;20549;-78
2023/01/29 09:38:52;;;;;;;99.20;74.33;;;4.10;99.90;;;;;;5069905;28;20076;-77
2023/01/29 09:41:30;;;;;;;82.40;53.13;;;4.10;99.90;;;;;;5065630;28;20051;-77
2023/01/29 09:44:04;;;;;;;86.70;52.60;;;4.10;99.90;;;;;;5068947;28;20143;-78
2023/01/29 09:46:42;;;;;;;90.37;51.87;;;4.10;99.90;;;;;;5066539;28;20054;-78
2023/01/29 09:49:20;;;;;;;88.07;51.97;;;4.20;99.90;;;;;;5069277;28;20105;-78
2023/01/29 09:51:51;;;;;;;87.60;55.77;;;4.20;99.90;;;;;;5070293;28;20083;-78
2023/01/29 09:54:23;;;;;;;;;;;4.10;99.90;;;;;;5068451;28;20448;-79
2023/01/29 09:56:53;;;;;;;94.45;57.08;;;4.10;99.90;;;;;;5070375;28;19975;-78
2023/01/29 09:59:22;;;;;;;98.40;56.20;;;4.30;99.90;;;;;;5064695;28;20056;-77
2023/01/29 10:02:17;;;;;;;98.57;56.03;;;4.10;99.90;;;;;;5065854;28;20161;-78
2023/01/29 10:05:21;;;;;;;96.13;59.97;;;4.10;99.90;;;;;;5066664;28;20411;-78
2023/01/29 10:08:18;;;;;;;99.43;59.33;;;4.10;99.90;;;;;;5036998;28;20079;-78
2023/01/29 10:11:09;;;;;;;95.40;61.20;;;4.10;99.90;;;;;;5065630;28;20287;-78
2023/01/29 10:14:02;;;;;;;91.07;50.75;;;4.10;99.90;;;;;;5065941;28;20135;-78
2023/01/29 10:16:54;;;;;;;105.23;61.77;;;4.10;99.90;;;;;;5066345;28;20144;-78
2023/01/29 10:19:29;;;;;;;;;;;4.00;99.90;;;;;;5065500;28;20449;-78
2023/01/29 10:22:19;;;;;;;110.50;62.90;;;4.00;99.90;;;;;;5066430;28;20421;-78
2023/01/29 10:25:02;;;;;;;112.90;61.57;;;4.10;99.90;;;;;;5066317;28;20695;-78
2023/01/29 10:27:37;;;;;;;110.53;64.80;;;4.00;99.90;;;;;;5060559;28;20049;-78
2023/01/29 10:30:08;;;;;;;110.30;63.30;;;4.00;99.90;;;;;;5065347;28;20056;-79
2023/01/29 10:32:36;;;;;;;113.47;62.22;;;4.10;99.90;;;;;;5065565;28;20502;-77
2023/01/29 10:35:03;;;;;;;110.47;65.10;;;4.10;99.90;;;;;;5065132;28;20522;-78
2023/01/29 10:37:39;;;;;;;116.57;68.57;;;4.00;99.90;;;;;;5064526;28;20128;-79
2023/01/29 10:40:20;;;;;;;125.30;69.70;;;4.10;99.90;;;;;;5066445;28;20202;-78
2023/01/29 10:42:57;;;;;;;112.00;65.90;;;4.10;99.90;;;;;;5063865;28;20041;-77
2023/01/29 10:45:29;;;;;;;109.93;66.23;;;4.20;99.90;;;;;;5066697;28;20048;-78
2023/01/29 10:48:27;;;;;;;111.00;64.80;;;4.20;99.90;;;;;;5065127;28;20123;-78
2023/01/29 10:51:04;;;;;;;104.10;64.80;;;4.20;99.90;;;;;;5056837;28;20048;-78
2023/01/29 10:53:58;;;;;;;98.77;58.63;;;4.20;99.90;;;;;;5065789;28;20083;-78
2023/01/29 10:56:44;;;;;;;102.37;62.20;;;4.30;99.90;;;;;;5064065;28;20462;-78
2023/01/29 10:59:41;;;;;;;101.87;58.07;;;4.30;99.90;;;;;;5065224;28;20520;-77
2023/01/29 11:02:18;;;;;;;103.53;60.37;;;4.30;99.90;;;;;;5065380;28;20517;-78
2023/01/29 11:04:44;;;;;;;101.17;66.73;;;4.30;99.90;;;;;;5065007;28;20048;-77
2023/01/29 11:07:11;;;;;;;102.33;62.37;;;4.30;99.90;;;;;;5065129;28;20056;-77
2023/01/29 11:10:08;;;;;;;102.97;77.63;;;4.40;99.90;;;;;;5066107;28;20476;-77
2023/01/29 11:12:37;;;;;;;94.20;58.20;;;4.40;99.90;;;;;;5064574;28;20052;-78
2023/01/29 11:15:23;;;;;;;92.93;56.47;;;4.40;99.90;;;;;;5066030;28;20074;-78
2023/01/29 11:18:01;;;;;;;98.77;61.80;;;4.40;99.90;;;;;;5065373;28;20051;-78
2023/01/29 11:20:29;;;;;;;102.13;77.50;;;4.40;99.90;;;;;;5066171;28;20114;-78
2023/01/29 11:22:54;;;;;;;96.10;63.93;;;4.50;99.90;;;;;;5065268;28;20052;-79
2023/01/29 11:25:21;;;;;;;99.47;53.97;;;4.50;99.90;;;;;;5066236;28;20098;-78
2023/01/29 11:27:53;;;;;;;96.30;58.67;;;4.50;99.90;;;;;;5064910;28;20048;-78
2023/01/29 11:30:26;;;;;;;95.33;54.33;;;4.50;99.90;;;;;;5065925;28;20667;-78
2023/01/29 11:33:22;;;;;;;91.80;53.40;;;4.50;99.90;;;;;;5065403;28;20044;-78
2023/01/29 11:35:48;;;;;;;103.07;58.90;;;4.60;99.90;;;;;;5065317;28;20056;-77
2023/01/29 11:38:26;;;;;;;95.00;53.93;;;4.60;99.90;;;;;;5047658;28;20041;-77
2023/01/29 11:41:03;;;;;;;97.33;52.03;;;4.60;99.90;;;;;;5068645;28;20135;-78
2023/01/29 11:43:30;;;;;;;96.90;55.07;;;4.60;99.90;;;;;;5069469;28;20060;-77
2023/01/29 11:46:00;;;;;;;93.97;54.30;;;4.60;99.90;;;;;;5070194;28;20082;-78
2023/01/29 11:48:52;;;;;;;86.73;53.57;;;4.60;99.90;;;;;;5067794;28;20059;-78
2023/01/29 11:51:25;;;;;;;80.50;46.63;;;4.70;99.90;;;;;;5067343;28;20047;-78
2023/01/29 11:54:03;;;;;;;91.17;48.40;;;4.70;99.90;;;;;;5066691;28;20101;-78
2023/01/29 11:56:37;;;;;;;83.83;68.13;;;4.80;99.90;;;;;;5059746;28;20549;-80
2023/01/29 11:59:04;;;;;;;82.80;56.30;;;4.80;99.90;;;;;;5068251;28;20105;-78
2023/01/29 12:01:39;;;;;;;72.47;46.17;;;4.90;99.90;;;;;;5049959;28;20499;-78
2023/01/29 12:04:21;;;;;;;67.27;45.67;;;4.80;99.90;;;;;;5068240;28;20140;-78
2023/01/29 12:06:50;;;;;;;64.67;43.53;;;5.00;99.90;;;;;;5021502;28;20560;-78
2023/01/29 12:09:19;;;;;;;62.97;42.20;;;5.00;99.90;;;;;;5067141;28;20125;-78
2023/01/29 12:11:45;;;;;;;70.43;62.87;;;5.00;99.90;;;;;;5083079;28;20071;-78
2023/01/29 12:14:32;;;;;;;55.47;36.53;;;5.00;99.90;;;;;;5053985;28;20490;-78
2023/01/29 12:17:17;;;;;;;63.83;56.20;;;5.00;99.90;;;;;;5050887;28;20079;-78
2023/01/29 12:19:46;;;;;;;56.13;41.03;;;5.00;99.90;;;;;;5067092;28;20061;-77
2023/01/29 12:22:51;;;;;;;49.43;31.73;;;5.20;99.90;;;;;;5064455;28;20068;-78
2023/01/29 12:26:11;;;;;;;49.43;38.60;;;5.10;99.90;;;;;;4717101;28;20550;-78
2023/01/29 12:30:05;;;;;;;46.53;29.93;;;5.20;99.90;;;;;;4487539;28;20537;-79
2023/01/29 12:33:13;;;;;;;44.70;35.03;;;5.20;99.90;;;;;;4917315;28;20358;-79
2023/01/29 12:35:49;;;;;;;39.27;26.03;;;5.30;99.90;;;;;;4989194;28;20061;-77
2023/01/29 12:38:39;;;;;;;39.20;27.73;;;5.30;99.90;;;;;;4673636;28;20624;-79
2023/01/29 12:41:33;;;;;;;43.20;29.30;;;5.30;99.90;;;;;;4955107;28;20058;-77
2023/01/29 12:44:16;;;;;;;41.77;33.27;;;5.30;99.90;;;;;;5056754;28;20048;-78
2023/01/29 12:46:55;;;;;;;40.03;29.50;;;5.30;99.90;;;;;;5049633;28;20068;-79
2023/01/29 12:49:31;;;;;;;38.87;25.53;;;5.40;99.90;;;;;;5067697;28;20052;-77
2023/01/29 12:52:12;;;;;;;34.73;29.07;;;5.40;99.90;;;;;;5063163;28;20091;-77
2023/01/29 12:55:11;;;;;;;33.10;28.93;;;5.40;99.90;;;;;;5066178;28;20090;-77
2023/01/29 12:58:01;;;;;;;41.67;31.43;;;5.40;99.90;;;;;;5026835;28;20094;-77
2023/01/29 13:00:37;;;;;;;42.23;30.20;;;5.40;99.90;;;;;;5065606;28;20057;-79
2023/01/29 13:03:15;;;;;;;43.80;28.40;;;5.30;99.90;;;;;;5065493;28;20056;-78
2023/01/29 13:05:50;;;;;;;45.13;32.40;;;5.20;99.90;;;;;;5066358;28;20110;-78
2023/01/29 13:08:44;;;;;;;43.87;31.27;;;5.20;99.90;;;;;;5050699;28;20052;-79
2023/01/29 13:11:18;;;;;;;41.30;25.30;;;5.20;99.90;;;;;;5043477;28;20094;-78
2023/01/29 13:14:11;;;;;;;45.43;34.13;;;5.10;99.90;;;;;;5064247;28;20063;-77
2023/01/29 13:16:41;;;;;;;52.33;46.13;;;5.10;99.90;;;;;;5039574;28;20525;-77
2023/01/29 13:19:28;;;;;;;56.30;45.17;;;5.10;99.90;;;;;;5063658;28;20056;-77
2023/01/29 13:21:58;;;;;;;56.23;45.57;;;5.10;99.90;;;;;;5065343;28;20060;-77
2023/01/29 13:24:26;;;;;;;55.83;38.93;;;5.00;99.90;;;;;;5081261;28;20053;-79
2023/01/29 13:26:52;;;;;;;70.33;63.07;;;5.00;99.90;;;;;;5051135;28;20519;-78
2023/01/29 13:29:27;;;;;;;53.87;35.97;;;5.00;99.90;;;;;;5063580;28;20127;-77
2023/01/29 13:31:55;;;;;;;64.80;57.87;;;5.00;99.90;;;;;;5065562;28;20041;-77